Nickajack Observed Data For Previous 48 Hours

Caption
Day and Hour Reservoir Elevation (behind dam)* Tailwater Elevation (below dam)* Average Hourly Discharge*
1/18/2018 1 AM CST 633.28 595.72 23,461
1/18/2018 2 AM CST 633.30 595.53 22,997
1/18/2018 3 AM CST 633.26 595.41 22,760
1/18/2018 4 AM CST 633.23 595.31 22,706
1/18/2018 5 AM CST 633.21 595.31 22,829
1/18/2018 6 AM CST 632.98 596.18 35,892
1/18/2018 7 AM CST 633.09 596.67 42,645
1/18/2018 8 AM CST 633.09 596.89 42,764
1/18/2018 9 AM CST 633.27 596.43 32,597
1/18/2018 10 AM CST 633.18 596.33 32,039
1/18/2018 11 AM CST 633.33 595.84 27,973
1/18/2018 12 PM CST 633.32 595.51 22,621
1/18/2018 1 PM CST 633.45 594.91 16,647
1/18/2018 2 PM CST 633.50 594.68 16,480
1/18/2018 3 PM CST 633.50 594.54 16,381
1/18/2018 4 PM CST 633.48 594.50 16,429
1/18/2018 5 PM CST 633.39 594.97 22,697
1/18/2018 6 PM CST 633.51 595.09 22,954
1/18/2018 7 PM CST 633.50 595.75 32,043
1/18/2018 8 PM CST 633.53 595.90 32,352
1/18/2018 9 PM CST 633.53 596.06 32,472
1/18/2018 10 PM CST 633.53 596.17 32,454
1/18/2018 11 PM CST 633.69 595.59 23,090
1/19/2018 12 AM CST 633.85 594.95 16,558
1/19/2018 1 AM CST 633.99 594.67 16,362
1/19/2018 2 AM CST 633.94 594.55 16,321
1/19/2018 3 AM CST 633.86 594.45 16,360
1/19/2018 4 AM CST 633.65 595.13 23,841
1/19/2018 5 AM CST 633.40 595.78 33,636
1/19/2018 6 AM CST 633.27 596.44 42,621
1/19/2018 7 AM CST 633.44 596.78 42,587
1/19/2018 8 AM CST 633.50 596.93 42,603
1/19/2018 9 AM CST 633.57 597.02 42,689
1/19/2018 10 AM CST 633.37 597.12 42,782
1/19/2018 11 AM CST 633.49 596.56 32,862
1/19/2018 12 PM CST 633.63 595.83 22,876
1/19/2018 1 PM CST 633.74 595.13 16,602
1/19/2018 2 PM CST 633.83 594.81 16,432
1/19/2018 3 PM CST 633.71 594.63 16,312
1/19/2018 4 PM CST 633.61 594.55 16,348
1/19/2018 5 PM CST 633.47 594.96 22,357
1/19/2018 6 PM CST 633.32 595.53 31,987
1/19/2018 7 PM CST 633.25 595.79 31,282
1/19/2018 8 PM CST 633.29 595.98 32,163
1/19/2018 9 PM CST 633.31 596.04 32,548
1/19/2018 10 PM CST 633.33 596.16 32,769
1/19/2018 11 PM CST 633.33 596.12 32,262
1/20/2018 12 AM CST 633.48 595.59 23,349
1/20/2018 1 AM CST 633.42 595.39 22,676
1/20/2018 2 AM CST 633.30 595.20 22,618
1/20/2018 3 AM CST 633.26 595.11 22,539
1/20/2018 4 AM CST 633.17 595.10 22,437
1/20/2018 5 AM CST 633.05 595.13 22,808
1/20/2018 6 AM CST 633.05 594.89 27,683
1/20/2018 7 AM CST 633.01 594.70 16,940
1/20/2018 8 AM CST 633.10 594.59 17,276
1/20/2018 9 AM CST 633.03 595.57 31,034
1/20/2018 10 AM CST 633.16 595.82 32,486
1/20/2018 11 AM CST 633.16 595.99 32,637
1/20/2018 12 PM CST 633.18 596.09 32,963
1/20/2018 1 PM CST 633.32 595.49 23,061
1/20/2018 2 PM CST 633.37 594.88 16,452
1/20/2018 3 PM CST 633.31 594.64 16,402
1/20/2018 4 PM CST 633.31 594.49 16,394
1/20/2018 5 PM CST 633.30 594.46 16,416
1/20/2018 6 PM CST 633.22 594.91 22,803
1/20/2018 7 PM CST 633.23 594.92 22,207
1/20/2018 8 PM CST 633.35 595.02 22,495

Elevations are in feet above sea level. Discharges are in cubic feet per second and are reported at the end of the hour.